AirNav   TITAN Aviation Fuels
 
 967 users online  

I19 Greene County/Lewis A Jackson Regional Airport
Dayton, Ohio, USA

GOING TO DAYTON?


FAA INFORMATION EFFECTIVE 02 DECEMBER 2021

Location

FAA Identifier: I19
Lat/Long: 39-41-26.6000N 083-59-34.0000W
39-41.443333N 083-59.566667W
39.6907222,-83.9927778
(estimated)
Elevation: 948.5 ft. / 289.1 m (surveyed)
Variation: 05W (1995)
From city: 10 miles E of DAYTON, OH
Time zone: UTC -5 (UTC -4 during Daylight Saving Time)
Zip code: 45385

Airport Operations

Airport use: Open to the public
Activation date: 10/1968
Control tower: no
ARTCC: INDIANAPOLIS CENTER
FSS: DAYTON FLIGHT SERVICE STATION
NOTAMs facility: DAY (NOTAM-D service available)
Attendance: NOV-MAR 0800-1800, APR-OCT 0800-2000
UNATNDD THANKSGIVING, CHRISTMAS, & NEW YEARS DAY.
Wind indicator: lighted
Segmented circle: no
Lights: ACTVT REIL RWY 07 & 25; MIRL RWY 07/25 - CTAF. PAPI RWY 07 & 25 OPR CONSLY.
Beacon: white-green (lighted land airport)
Operates sunset to sunrise.

Airport Communications

CTAF/UNICOM: 122.7
WX AWOS-3: 118.525 (937-372-4668)
COLUMBUS APPROACH: 118.85
COLUMBUS DEPARTURE: 118.85
CLASS C: 118.85
IC: 118.85
WX AWOS-3PT at SGH (11 nm NE): 134.975 (937-324-4532)
WX ASOS at MGY (12 nm SW): 118.375 (937-885-2171)
WX AWOS-3 at I66 (13 nm SE): 124.175 (937-382-1376)
WX ASOS at DAY (16 nm NW): PHONE 937-415-6819
WX AWOS-3 at I68 (18 nm SW): 120.55 (513-934-5500)
WX ASOS at ILN (18 nm SE): PHONE 937-383-7334

Nearby radio navigation aids

VOR radial/distance  VOR name  Freq  Var
MXQr335/18.0MIDWEST VOR/DME112.9004W
DQNr137/27.0DAYTON VOR/DME114.5001W
RODr181/35.9ROSEWOOD VORTAC117.5005W

 
NDB name  Hdg/Dist  Freq  Var  ID
HOOK FIELD065/24.023904WHKF .... -.- ..-.
COURT HOUSE287/28.341406WCSS -.-. ... ...
SPORTYS020/38.324504WPWF .--. .-- ..-.

Airport Services

Fuel available: 100LL JET-A+
100LL:100LL & JET A+ AVBL H24 SELF SVC VIA CREDIT CARD.
Parking: hangars and tiedowns
Airframe service: MAJOR
Powerplant service: MAJOR
Bottled oxygen: NONE
Bulk oxygen: HIGH

Runway Information

Runway 7/25

Dimensions: 5004 x 75 ft. / 1525 x 23 m
Surface: asphalt, in good condition
Weight bearing capacity: 
Single wheel: 30.0
Runway edge lights: medium intensity
Runway edge markings: FADED.
RUNWAY 7  RUNWAY 25
Latitude: 39-41.256342N39-41.629478N
Longitude: 084-00.042808W083-59.091673W
Elevation: 909.5 ft.948.5 ft.
Traffic pattern: leftleft
Runway heading: 068 magnetic, 063 true248 magnetic, 243 true
Markings: nonprecision, in good conditionnonprecision, in poor condition
Visual slope indicator: 2-light PAPI on left (3.50 degrees glide path)2-light PAPI on left (3.50 degrees glide path)
Runway end identifier lights: yesyes
Touchdown point: yes, no lightsyes, no lights

Airport Ownership and Management from official FAA records

Ownership: Publicly-owned
Owner: GREENE COUNTY RGNL ARPT AUTH
140 N VALLEY RD
XENIA, OH 45385-9301
Phone 937-376-8107
Manager: DAVE KUSHNER
140 N VALLEY RD
XENIA, OH 45385-9301
Phone 937-376-8107

Airport Operational Statistics

Aircraft based on the field: 74
Single engine airplanes: 63
Multi engine airplanes: 10
Helicopters: 1
    
Aircraft operations: avg 139/day *
88% local general aviation
12% transient general aviation
* for 12-month period ending 09 September 2021

Additional Remarks

A58-07 2-4 FT BRUSH, 0-90 FT DIST, 100 FT R; 2-3 FT BRUSH, 100-150 FT DIST, 130-215 FT L.
BIRDS, COYOTES, & DEER ON & INVOF ARPT.
FOR CD CTC COLUMBUS APCH AT 614-338-8537.
EXTSV FLT TRG ACT.

Instrument Procedures

NOTE: All procedures below are presented as PDF files. If you need a reader for these files, you should download the free Adobe Reader.

NOT FOR NAVIGATION. Please procure official charts for flight.
FAA instrument procedures published for use from 02 December 2021 at 0901Z to 30 December 2021 at 0900Z.

 
IAPs - Instrument Approach Procedures
RNAV (GPS) RWY 07 **CHANGED**   download (263KB)
RNAV (GPS) RWY 25 **CHANGED**   download (257KB)
NOTE: Special Take-Off Minimums/Departure Procedures apply **CHANGED**   download (462KB)

Other nearby airports with instrument procedures:

KFFO - Wright-Patterson Air Force Base (8 nm N)
KSGH - Springfield/Beckley Municipal Airport (11 nm NE)
KMGY - Dayton-Wright Brothers Airport (12 nm SW)
I66 - Clinton Field Airport (13 nm SE)
KDAY - James M Cox Dayton International Airport (16 nm NW)
I68 - Warren County Airport/John Lane Field (18 nm SW)
KILN - Wilmington Air Park (18 nm SE)
 
Loc | Ops | Rwys | IFR | FBO | Links
Com | Nav | Svcs | Stats | Notes
Area around I19 (Greene County/Lewis A Jackson Regional Airport)
 
Road maps at: MapQuest Bing Google
 
Aerial photo
WARNING: Photo may not be current or correct
Aerial photo of I19 (Greene County/Lewis A Jackson Regional Airport)
Photo by Anthony Springer
Photo taken 13-Jun-2018
looking northeast.

Do you have a better or more recent aerial photo of Greene County/Lewis A Jackson Regional Airport that you would like to share? If so, please send us your photo.

 
Sectional chart

 
Airport distance calculator
Flying to Greene County/Lewis A Jackson Regional Airport? Find the distance to fly.

From to I19

Sunrise and sunset
Times for 05-Dec-2021
 Local
(UTC-5)
 Zulu
(UTC)
Morning civil twilight07:1312:13
Sunrise07:4312:43
Sunset17:1122:11
Evening civil twilight17:4122:41

Current date and time
Zulu (UTC)  05-Dec-2021 15:43:01
Local (UTC-5)  05-Dec-2021 10:43:01
 
METAR
KFFO 
8nm N 
051456Z AUTO 09006KT 10SM BKN041 OVC060 03/M07 A3013 RMK AO2 SLP214 T00321073 57024
KSGH 
11nm NE 
051456Z AUTO 11015KT 10SM OVC060 02/M04 A3012 RMK AO2 SLP211 6//// T00221039 58026 FZRANO PNO $
KMGY 
12nm SW 
051453Z AUTO 11013KT 10SM OVC035 04/M05 A3010 RMK AO2 SLP200 T00391050 58026
KDAY 
16nm NW 
051456Z 12013KT 10SM FEW039 OVC060 03/M07 A3013 RMK AO2 SLP211 T00331072 58023
KILN 
18nm SE 
051454Z AUTO 12006KT 10SM BKN035 BKN046 OVC070 02/M03 A3013 RMK AO2 SLP227 T00171033 58020
KI68 
18nm SW 
051515Z AUTO 12011G16KT 10SM OVC031 04/M03 A3011 RMK AO1 T00401032
TAF
KFFO 
8nm N 
051113Z 0511/0617 07009KT 9999 SCT090 BKN200 QNH3011INS BECMG 0515/0516 14010G15KT 9999 FEW025 BKN030 BKN200 510102 QNH2984INS TEMPO 0518/0523 15013G21KT -RA OVC025 BECMG 0522/0523 18015G25KT 9000 -SHRA SCT008 OVC015 540152 QNH2975INS BECMG 0602/0603 19015G25KT 8000 -SHRA SCT005 OVC008 641004 520004 QNH2970INS TEMPO 0606/0609 22017G30KT 6000 SHRA OVC005 BECMG 0611/0612 27020G25KT 8000 RA OVC007 510002 QNH2974INS BECMG 0614/0615 29020G30KT 9999 NSW FEW016 FEW023 SCT085 520003 QNH2982INS TX14/0603
KDAY 
16nm NW 
051137Z 0512/0612 08010KT P6SM BKN250 FM051400 11010G18KT P6SM BKN040 FM052200 17012G20KT P6SM VCSH OVC025 WS020/20040KT FM060000 17014G22KT P6SM -SHRA OVC015 WS020/20050KT FM060500 21016G25KT 4SM -SHRA BR OVC011 FM061100 26015G26KT P6SM OVC025
KILN 
18nm SE 
051137Z 0512/0612 07008KT P6SM BKN250 FM051300 13012G18KT P6SM BKN040 FM052200 17012G25KT P6SM BKN025 WS020/20040KT FM060000 19017G27KT P6SM VCSH OVC018 WS020/21050KT FM060500 20017G27KT 5SM -SHRA BR OVC011 FM061100 25017G26KT 3SM -SHRA BR OVC015
NOTAMs
Click for the latest NOTAMs
NOTAMs are issued by the DoD/FAA and will open in a separate window not controlled by AirNav.

 

 
 

FBO, Fuel Providers, and Aircraft Ground Support

  
 Business Name 
 
 Contact 
 
 Services / Description 
 
Fuel Prices
 
Comments
  
 MacAir Aviation
937-581-8056
[web site]
[email]
Aviation fuel, Aircraft ground handling, Aircraft parking (ramp or tiedown), Passenger terminal and lounge, Pilot school (FAR Part 141), ...
 
Certificated Pilot School   PSI FAA Test Center  
 
More info about MacAir Aviation
EPIC
100LL Jet A
AS $5.29 $3.24 
 Updated 22-Nov-2021
 
   4 read write
AS=Assisted/Self Service
Update Fuel Prices
 

Would you like to see your business listed on this page?

 If your business provides an interesting product or service to pilots, flight crews, aircraft, or users of the Greene County/Lewis A Jackson Regional Airport, you should consider listing it here.  To start the listing process, click on the button below
 
Add a business
 

Other Pages about Greene County/Lewis A Jackson Regional Airport

www.i19airport.com
 
Update a link
 
Copyright © AirNav, LLC. All rights reserved. Privacy Policy  Contact